createdAt,value
2024-01-22T00:00:30.857Z,19.33
2024-01-22T00:01:30.809Z,19.35
2024-01-22T00:02:30.799Z,19.35
2024-01-22T00:03:30.856Z,19.40
2024-01-22T00:57:51.830Z,19.33
2024-01-22T00:58:31.099Z,19.29
2024-01-22T00:59:31.091Z,19.36
2024-01-22T01:00:31.093Z,19.29
2024-01-22T01:01:31.097Z,19.24
2024-01-22T01:02:31.099Z,19.25
2024-01-22T01:03:31.196Z,19.27
2024-01-22T01:04:31.195Z,19.25
2024-01-22T01:05:31.112Z,19.24
2024-01-22T01:06:31.105Z,19.29
2024-01-22T01:07:31.116Z,19.27
2024-01-22T01:08:31.111Z,19.24
2024-01-22T01:09:31.112Z,19.27
2024-01-22T01:10:31.116Z,19.32
2024-01-22T01:11:31.130Z,19.24
2024-01-22T01:12:31.116Z,19.25
2024-01-22T01:13:31.149Z,19.25
2024-01-22T01:14:31.127Z,19.27
2024-01-22T01:15:31.124Z,19.25
2024-01-22T01:16:31.120Z,19.25
2024-01-22T01:17:31.156Z,19.30
2024-01-22T01:18:31.277Z,19.25
2024-01-22T01:19:31.243Z,19.29
2024-01-22T01:20:31.133Z,19.27
2024-01-22T01:21:31.152Z,19.29
2024-01-22T01:22:31.125Z,19.30
2024-01-22T01:23:31.152Z,19.28
2024-01-22T01:24:31.134Z,19.24
2024-01-22T01:25:31.137Z,19.27
2024-01-22T01:26:31.137Z,19.27
2024-01-22T01:27:31.136Z,19.28
2024-01-22T01:28:31.132Z,19.28
2024-01-22T01:29:31.169Z,19.25
2024-01-22T01:30:31.221Z,19.25
2024-01-22T01:31:31.280Z,19.26
2024-01-22T01:32:31.460Z,19.28
2024-01-22T01:33:31.481Z,19.25
2024-01-22T01:34:31.644Z,19.24
2024-01-22T01:35:31.489Z,19.33
2024-01-22T01:36:31.549Z,19.24
2024-01-22T01:37:31.629Z,19.25
2024-01-22T01:38:31.659Z,19.22
2024-01-22T01:39:31.700Z,19.20
2024-01-22T01:40:31.745Z,19.14
2024-01-22T01:41:31.804Z,19.24
2024-01-22T01:42:31.868Z,19.22
2024-01-22T01:43:31.908Z,19.22
2024-01-22T01:44:31.969Z,19.22
2024-01-22T01:45:32.040Z,19.17
2024-01-22T01:46:32.072Z,19.22
2024-01-22T01:47:32.155Z,19.23
2024-01-22T01:48:32.302Z,19.23
2024-01-22T01:49:32.224Z,19.24
2024-01-22T01:50:32.272Z,19.19
2024-01-22T01:51:32.322Z,19.22
2024-01-22T01:52:32.391Z,19.20
2024-01-22T01:53:32.440Z,19.20
2024-01-22T01:54:32.478Z,19.22
2024-01-22T01:55:32.526Z,19.23
2024-01-22T01:56:32.586Z,19.15
2024-01-22T01:57:33.001Z,19.20
2024-01-22T01:58:32.706Z,19.17
2024-01-22T01:59:32.790Z,19.15
2024-01-22T02:00:33.057Z,19.20
2024-01-22T02:01:33.014Z,19.20
2024-01-22T02:02:33.005Z,19.22
2024-01-22T02:03:33.186Z,19.20
2024-01-22T02:04:33.061Z,19.20
2024-01-22T02:05:33.229Z,19.20
2024-01-22T02:06:33.139Z,19.20
2024-01-22T02:07:33.198Z,19.19
2024-01-22T02:08:33.352Z,19.17
2024-01-22T02:09:33.303Z,19.20
2024-01-22T02:10:33.369Z,19.17
2024-01-22T02:11:33.430Z,19.19
2024-01-22T02:12:33.476Z,19.15
2024-01-22T02:13:33.522Z,19.10
2024-01-22T02:14:33.628Z,19.11
2024-01-22T02:15:33.613Z,19.14
2024-01-22T02:16:33.679Z,19.12
2024-01-22T02:17:34.056Z,19.14
2024-01-22T02:18:33.939Z,19.14
2024-01-22T02:19:33.975Z,19.15
2024-01-22T02:20:33.956Z,19.09
2024-01-22T02:21:33.953Z,19.17
2024-01-22T02:22:34.026Z,19.12
2024-01-22T02:23:34.092Z,19.09
2024-01-22T02:24:34.120Z,19.15
2024-01-22T02:25:34.159Z,19.11
2024-01-22T02:26:36.621Z,19.14
2024-01-22T02:27:34.227Z,19.12
2024-01-22T02:28:34.213Z,19.10
2024-01-22T02:29:34.271Z,19.06
2024-01-22T02:30:34.218Z,19.13
2024-01-22T02:31:34.206Z,19.11
2024-01-22T02:32:34.287Z,19.15
2024-01-22T02:33:34.420Z,19.12
2024-01-22T02:34:34.251Z,19.09
2024-01-22T02:35:34.346Z,19.08
2024-01-22T02:36:34.212Z,19.06
2024-01-22T02:37:34.222Z,19.09
2024-01-22T02:38:34.236Z,19.11
2024-01-22T02:39:34.232Z,19.08
2024-01-22T02:40:34.241Z,19.13
2024-01-22T02:41:34.297Z,19.06
2024-01-22T02:42:34.234Z,19.09
2024-01-22T02:43:34.230Z,19.11
2024-01-22T02:44:34.269Z,19.11
2024-01-22T02:45:34.239Z,19.06
2024-01-22T02:46:34.240Z,19.08
2024-01-22T02:47:34.436Z,19.04
2024-01-22T02:48:34.381Z,19.12
2024-01-22T02:49:34.420Z,19.08
2024-01-22T02:50:34.278Z,19.09
2024-01-22T02:51:34.231Z,19.12
2024-01-22T02:52:34.239Z,19.08
2024-01-22T02:53:34.306Z,19.06
2024-01-22T02:54:34.345Z,19.08
2024-01-22T02:55:34.378Z,19.08
2024-01-22T02:56:34.482Z,19.04
2024-01-22T02:57:34.481Z,19.06
2024-01-22T02:58:35.103Z,19.06
2024-01-22T02:59:34.608Z,19.06
2024-01-22T03:00:34.719Z,19.09
2024-01-22T03:01:34.696Z,19.03
2024-01-22T03:02:34.793Z,19.03
2024-01-22T03:03:34.787Z,19.09
2024-01-22T03:04:34.885Z,19.09
2024-01-22T03:05:34.944Z,19.06
2024-01-22T03:06:35.007Z,19.04
2024-01-22T03:07:35.002Z,19.04
2024-01-22T03:08:35.083Z,19.06
2024-01-22T03:09:35.113Z,19.06
2024-01-22T03:10:35.148Z,19.04
2024-01-22T03:11:35.255Z,19.11
2024-01-22T03:12:35.266Z,19.11
2024-01-22T03:13:35.311Z,19.04
2024-01-22T03:14:35.404Z,19.06
2024-01-22T03:15:35.415Z,19.08
2024-01-22T03:16:35.472Z,19.11
2024-01-22T03:17:35.589Z,19.04
2024-01-22T03:18:35.724Z,19.03
2024-01-22T03:19:35.675Z,19.03
2024-01-22T03:20:35.727Z,19.07
2024-01-22T03:21:35.762Z,19.03
2024-01-22T03:22:35.846Z,19.11
2024-01-22T03:23:35.883Z,19.09
2024-01-22T03:24:35.909Z,19.04
2024-01-22T03:25:35.971Z,19.09
2024-01-22T03:26:36.097Z,19.06
2024-01-22T03:27:36.098Z,19.11
2024-01-22T03:28:36.125Z,19.08
2024-01-22T03:29:36.261Z,19.04
2024-01-22T03:30:36.251Z,19.06
2024-01-22T03:31:36.293Z,19.07
2024-01-22T03:32:36.472Z,19.06
2024-01-22T03:33:36.488Z,19.08
2024-01-22T03:34:36.555Z,19.08
2024-01-22T03:35:36.516Z,19.11
2024-01-22T03:36:36.560Z,19.04
2024-01-22T03:37:36.637Z,19.04
2024-01-22T03:38:36.706Z,19.11
2024-01-22T03:39:36.714Z,19.06
2024-01-22T03:40:36.810Z,19.01
2024-01-22T03:41:36.842Z,19.06
2024-01-22T03:42:36.873Z,19.09
2024-01-22T03:43:36.920Z,19.06
2024-01-22T03:44:37.001Z,19.09
2024-01-22T03:45:37.027Z,19.08
2024-01-22T03:46:37.079Z,19.04
2024-01-22T03:47:37.177Z,19.09
2024-01-22T03:48:37.268Z,19.04
2024-01-22T03:49:37.419Z,19.07
2024-01-22T03:50:37.416Z,19.01
2024-01-22T03:51:37.359Z,19.03
2024-01-22T03:52:37.418Z,19.06
2024-01-22T03:53:37.645Z,19.08
2024-01-22T03:54:37.534Z,19.11
2024-01-22T03:55:37.590Z,19.04
2024-01-22T03:56:37.649Z,19.08
2024-01-22T03:57:37.707Z,18.99
2024-01-22T03:58:37.750Z,19.01
2024-01-22T03:59:37.837Z,19.06
2024-01-22T04:00:37.878Z,19.01
2024-01-22T04:01:37.915Z,19.06
2024-01-22T04:02:38.112Z,19.03
2024-01-22T04:03:38.174Z,19.06
2024-01-22T04:04:38.072Z,19.03
2024-01-22T04:05:38.225Z,18.99
2024-01-22T04:06:38.355Z,19.01
2024-01-22T04:07:38.237Z,19.03
2024-01-22T04:08:38.294Z,18.98
2024-01-22T04:09:38.385Z,19.04
2024-01-22T04:10:38.472Z,19.01
2024-01-22T04:11:38.481Z,19.04
2024-01-22T04:12:38.524Z,19.03
2024-01-22T04:13:38.582Z,19.03
2024-01-22T04:14:38.662Z,19.04
2024-01-22T04:15:38.691Z,18.99
2024-01-22T04:16:38.744Z,18.96
2024-01-22T04:17:38.888Z,19.01
2024-01-22T04:18:38.986Z,19.01
2024-01-22T04:19:38.959Z,19.01
2024-01-22T04:20:38.996Z,19.03
2024-01-22T04:21:39.024Z,19.01
2024-01-22T04:22:39.099Z,19.03
2024-01-22T04:23:39.164Z,19.01
2024-01-22T04:24:39.195Z,19.04
2024-01-22T04:25:39.278Z,19.06
2024-01-22T04:26:39.306Z,18.98
2024-01-22T04:27:39.348Z,18.99
2024-01-22T04:28:39.418Z,18.96
2024-01-22T04:29:39.525Z,19.03
2024-01-22T04:30:41.834Z,19.06
2024-01-22T04:31:39.513Z,19.02
2024-01-22T04:32:39.687Z,18.96
2024-01-22T04:33:39.645Z,19.03
2024-01-22T04:34:39.515Z,19.06
2024-01-22T04:35:39.556Z,18.99
2024-01-22T04:36:39.518Z,19.02
2024-01-22T04:37:39.528Z,19.07
2024-01-22T04:38:39.556Z,19.03
2024-01-22T04:39:39.523Z,19.01
2024-01-22T04:40:39.521Z,18.98
2024-01-22T04:41:39.600Z,19.01
2024-01-22T04:42:39.526Z,18.98
2024-01-22T04:43:39.578Z,19.01
2024-01-22T04:44:39.624Z,18.99
2024-01-22T04:45:39.651Z,18.98
2024-01-22T04:46:39.709Z,18.96
2024-01-22T04:47:39.854Z,18.99
2024-01-22T04:48:39.915Z,18.98
2024-01-22T04:49:39.906Z,18.98
2024-01-22T04:50:47.191Z,19.01
2024-01-22T04:51:48.160Z,18.98
2024-01-22T04:52:48.157Z,18.98
2024-01-22T04:53:48.224Z,19.01
2024-01-22T04:54:48.161Z,19.01
2024-01-22T04:55:48.162Z,18.91
2024-01-22T04:56:48.279Z,18.99
2024-01-22T04:57:48.162Z,18.96
2024-01-22T04:58:48.164Z,18.94
2024-01-22T04:59:48.248Z,18.99
2024-01-22T05:00:48.230Z,19.03
2024-01-22T05:01:48.169Z,18.96
2024-01-22T05:02:48.297Z,19.01
2024-01-22T05:03:48.220Z,19.01
2024-01-22T05:04:48.182Z,18.98
2024-01-22T05:05:48.320Z,18.94
2024-01-22T05:06:48.324Z,18.98
2024-01-22T05:07:48.199Z,18.99
2024-01-22T05:08:48.299Z,18.96
2024-01-22T05:09:48.315Z,19.03
2024-01-22T05:10:48.386Z,18.99
2024-01-22T05:11:48.439Z,18.99
2024-01-22T05:12:48.498Z,18.98
2024-01-22T05:13:48.536Z,18.98
2024-01-22T05:14:48.634Z,18.98
2024-01-22T05:15:48.663Z,19.01
2024-01-22T05:16:48.711Z,19.02
2024-01-22T05:17:49.103Z,19.01
2024-01-22T05:18:49.016Z,18.98
2024-01-22T05:19:48.889Z,18.94
2024-01-22T05:20:48.915Z,18.98
2024-01-22T05:21:48.968Z,19.03
2024-01-22T05:22:49.039Z,18.99
2024-01-22T05:23:49.120Z,18.99
2024-01-22T05:24:49.173Z,18.91
2024-01-22T05:25:49.202Z,19.01
2024-01-22T05:26:49.303Z,19.01
2024-01-22T05:27:49.310Z,18.98
2024-01-22T05:28:49.406Z,19.01
2024-01-22T05:29:49.462Z,18.99
2024-01-22T05:30:49.490Z,18.97
2024-01-22T05:31:49.550Z,18.97
2024-01-22T05:32:53.121Z,18.94
2024-01-22T05:33:49.698Z,18.93
2024-01-22T05:34:49.749Z,18.93
2024-01-22T05:35:49.631Z,18.94
2024-01-22T05:36:49.613Z,19.01
2024-01-22T05:37:49.617Z,18.94
2024-01-22T05:38:49.701Z,18.94
2024-01-22T05:39:49.670Z,18.90
2024-01-22T05:40:49.624Z,18.93
2024-01-22T05:41:49.632Z,18.93
2024-01-22T05:42:49.638Z,18.91
2024-01-22T05:43:49.663Z,18.88
2024-01-22T05:44:49.770Z,18.88
2024-01-22T05:45:49.785Z,18.81
2024-01-22T05:46:49.855Z,18.85
2024-01-22T05:47:50.022Z,18.89
2024-01-22T05:48:50.056Z,18.81
2024-01-22T05:49:50.098Z,18.85
2024-01-22T05:50:50.164Z,18.85
2024-01-22T05:51:50.171Z,18.84
2024-01-22T05:52:50.224Z,18.88
2024-01-22T05:53:50.309Z,18.83
2024-01-22T05:54:50.385Z,18.83
2024-01-22T05:55:50.432Z,18.86
2024-01-22T05:56:51.124Z,18.81
2024-01-22T05:57:50.649Z,18.83
2024-01-22T05:58:50.711Z,18.88
2024-01-22T05:59:50.846Z,18.80
2024-01-22T06:00:50.968Z,18.81
2024-01-22T06:01:50.884Z,18.83
2024-01-22T06:02:51.029Z,18.83
2024-01-22T06:03:51.035Z,18.83
2024-01-22T06:04:51.048Z,18.85
2024-01-22T06:05:51.284Z,18.81
2024-01-22T06:06:51.290Z,18.78
2024-01-22T06:07:51.232Z,18.78
2024-01-22T06:08:51.356Z,18.80
2024-01-22T06:09:58.829Z,18.85
2024-01-22T06:10:51.370Z,18.83
2024-01-22T06:11:51.442Z,18.78
2024-01-22T06:12:51.823Z,18.78
2024-01-22T06:13:57.988Z,18.81
2024-01-22T06:14:51.429Z,19.07
2024-01-22T06:15:51.374Z,19.02
2024-01-22T06:16:51.400Z,19.11
2024-01-22T06:17:51.496Z,19.10
2024-01-22T06:18:51.941Z,19.23
2024-01-22T06:19:51.440Z,19.28
2024-01-22T06:20:51.428Z,19.42
2024-01-22T06:21:51.410Z,19.50
2024-01-22T06:22:51.381Z,19.45
2024-01-22T06:23:52.093Z,19.57
2024-01-22T06:24:51.786Z,19.52
2024-01-22T06:25:51.410Z,19.73
2024-01-22T06:26:51.419Z,19.59
2024-01-22T06:27:51.387Z,19.77
2024-01-22T06:28:51.403Z,19.81
2024-01-22T06:29:51.448Z,19.80
2024-01-22T06:30:51.396Z,19.83
2024-01-22T06:31:51.410Z,19.86
2024-01-22T06:32:52.024Z,19.88
2024-01-22T06:33:51.599Z,20.01
2024-01-22T06:34:51.592Z,20.06
2024-01-22T06:35:51.463Z,19.59
2024-01-22T06:36:51.481Z,19.34
2024-01-22T06:37:51.556Z,19.27
2024-01-22T06:38:51.877Z,19.78
2024-01-22T06:39:51.630Z,19.80
2024-01-22T06:40:53.252Z,20.07
2024-01-22T06:41:51.729Z,20.24
2024-01-22T06:42:51.802Z,18.85
2024-01-22T06:43:51.866Z,18.23
2024-01-22T06:44:51.771Z,18.20
2024-01-22T06:45:51.694Z,18.71
2024-01-22T06:46:51.720Z,19.15
2024-01-22T06:47:51.779Z,19.61
2024-01-22T06:48:51.956Z,19.95
2024-01-22T06:49:52.100Z,20.05
2024-01-22T06:50:52.098Z,20.93
2024-01-22T06:51:52.185Z,20.47
2024-01-22T06:52:52.049Z,20.89
2024-01-22T06:53:52.151Z,21.43
2024-01-22T06:54:52.051Z,21.43
2024-01-22T06:55:52.023Z,21.48
2024-01-22T06:56:52.195Z,21.73
2024-01-22T06:57:52.934Z,21.59
2024-01-22T06:58:53.987Z,21.83
2024-01-22T06:59:54.329Z,22.13
2024-01-22T07:00:51.999Z,22.43
2024-01-22T07:01:51.944Z,22.45
2024-01-22T07:02:59.499Z,22.76
2024-01-22T07:03:52.450Z,22.89
2024-01-22T07:05:23.890Z,23.15
2024-01-22T07:06:51.995Z,23.41
2024-01-22T07:07:51.965Z,23.52
2024-01-22T07:08:52.007Z,23.65
2024-01-22T07:09:51.960Z,23.70
2024-01-22T07:10:52.335Z,23.99
2024-01-22T07:11:52.033Z,24.13
2024-01-22T07:12:51.962Z,24.25
2024-01-22T07:13:51.964Z,24.43
2024-01-22T07:14:52.004Z,24.49
2024-01-22T07:15:51.995Z,24.67
2024-01-22T07:16:51.967Z,24.71
2024-01-22T07:17:52.073Z,24.98
2024-01-22T07:18:52.720Z,25.07
2024-01-22T07:19:52.035Z,25.20
2024-01-22T07:20:52.058Z,25.34
2024-01-22T07:21:51.993Z,25.48
2024-01-22T07:22:51.991Z,25.57
2024-01-22T07:23:55.554Z,25.75
2024-01-22T07:24:52.015Z,25.85
2024-01-22T07:25:52.027Z,25.97
2024-01-22T07:26:55.277Z,26.15
2024-01-22T07:27:52.345Z,26.27
2024-01-22T07:28:53.128Z,26.30
2024-01-22T07:29:52.092Z,26.51
2024-01-22T07:30:52.005Z,26.49
2024-01-22T07:31:52.016Z,26.69
2024-01-22T07:32:52.406Z,27.42
2024-01-22T07:33:52.487Z,27.01
2024-01-22T07:34:52.184Z,27.07
2024-01-22T07:35:52.264Z,27.15
2024-01-22T07:36:52.289Z,27.15
2024-01-22T07:37:52.310Z,27.19
2024-01-22T07:38:52.856Z,27.46
2024-01-22T07:39:52.420Z,27.58
2024-01-22T07:40:54.085Z,27.66
2024-01-22T07:41:52.505Z,27.69
2024-01-22T07:42:52.885Z,27.83
2024-01-22T07:43:52.460Z,27.98
2024-01-22T07:44:52.504Z,28.12
2024-01-22T07:45:52.461Z,28.22
2024-01-22T07:46:52.469Z,28.24
2024-01-22T07:47:52.963Z,28.31
2024-01-22T07:48:52.605Z,28.60
2024-01-22T07:49:52.519Z,28.62
2024-01-22T07:50:52.507Z,28.73
2024-01-22T07:51:53.485Z,28.81
2024-01-22T07:52:52.894Z,28.92
2024-01-22T07:53:52.497Z,28.97
2024-01-22T07:54:52.484Z,29.11
2024-01-22T07:55:52.470Z,29.16
2024-01-22T07:56:52.510Z,29.23
2024-01-22T07:57:52.852Z,29.32
2024-01-22T07:58:52.484Z,29.42
2024-01-22T07:59:52.586Z,29.43
2024-01-22T08:00:52.525Z,29.57
2024-01-22T08:01:52.866Z,29.63
2024-01-22T08:02:52.928Z,29.65
2024-01-22T08:04:08.143Z,28.06
2024-01-22T08:04:52.494Z,27.98
2024-01-22T08:05:52.607Z,25.79
2024-01-22T08:06:52.612Z,27.25
2024-01-22T08:07:52.499Z,28.34
2024-01-22T08:08:52.546Z,28.35
2024-01-22T08:09:55.713Z,28.47
2024-01-22T08:10:52.509Z,28.48
2024-01-22T08:11:52.640Z,28.43
2024-01-22T08:12:52.859Z,28.27
2024-01-22T08:13:52.506Z,28.39
2024-01-22T08:14:52.535Z,28.48
2024-01-22T08:15:52.507Z,28.56
2024-01-22T08:16:52.511Z,28.68
2024-01-22T08:17:52.917Z,28.72
2024-01-22T08:18:52.685Z,28.87
2024-01-22T08:19:52.538Z,28.93
2024-01-22T08:20:52.547Z,29.10
2024-01-22T08:21:52.510Z,29.13
2024-01-22T08:22:52.868Z,29.31
2024-01-22T08:23:52.556Z,29.47
2024-01-22T08:24:52.542Z,29.55
2024-01-22T08:25:52.583Z,29.70
2024-01-22T08:26:52.541Z,29.75
2024-01-22T08:27:52.872Z,30.04
2024-01-22T08:28:52.901Z,30.10
2024-01-22T08:29:52.543Z,30.32
2024-01-22T08:30:52.864Z,30.32
2024-01-22T08:31:52.536Z,30.33
2024-01-22T08:32:53.097Z,30.38
2024-01-22T08:33:53.126Z,26.54
2024-01-22T08:34:52.928Z,21.41
2024-01-22T08:35:53.192Z,23.43
2024-01-22T08:36:52.713Z,23.67
2024-01-22T08:37:53.483Z,24.29
2024-01-22T08:38:55.994Z,25.62
2024-01-22T08:39:56.038Z,26.12
2024-01-22T08:40:52.667Z,27.14
2024-01-22T08:41:52.926Z,26.50
2024-01-22T08:42:52.894Z,26.58
2024-01-22T08:43:52.534Z,26.68
2024-01-22T08:44:52.566Z,26.94
2024-01-22T08:45:52.566Z,26.93
2024-01-22T08:46:52.872Z,27.02
2024-01-22T08:47:52.915Z,26.58
2024-01-22T08:48:52.691Z,25.01
2024-01-22T08:49:52.722Z,25.77
2024-01-22T08:50:52.721Z,26.39
2024-01-22T08:51:52.870Z,26.18
2024-01-22T08:52:52.801Z,25.43
2024-01-22T08:53:53.032Z,24.47
2024-01-22T08:54:52.974Z,23.44
2024-01-22T08:55:54.850Z,23.69
2024-01-22T08:56:52.913Z,24.35
2024-01-22T08:57:52.873Z,24.83
2024-01-22T08:58:53.026Z,25.24
2024-01-22T08:59:53.379Z,25.46
2024-01-22T09:00:52.896Z,25.67
2024-01-22T09:01:52.922Z,25.75
2024-01-22T09:02:53.661Z,25.96
2024-01-22T09:03:52.962Z,26.10
2024-01-22T09:04:52.911Z,26.30
2024-01-22T09:05:52.954Z,26.51
2024-01-22T09:06:53.403Z,26.70
2024-01-22T09:07:53.844Z,26.82
2024-01-22T09:09:00.355Z,26.93
2024-01-22T09:09:52.900Z,27.10
2024-01-22T09:10:52.898Z,27.23
2024-01-22T09:11:54.421Z,27.39
2024-01-22T09:12:53.385Z,27.53
2024-01-22T09:13:53.066Z,27.64
2024-01-22T09:14:53.023Z,27.75
2024-01-22T09:15:53.017Z,27.84
2024-01-22T09:16:53.023Z,28.08
2024-01-22T09:17:53.546Z,28.31
2024-01-22T09:18:53.157Z,28.37
2024-01-22T09:19:53.189Z,28.54
2024-01-22T09:20:53.173Z,28.64
2024-01-22T09:21:53.125Z,28.72
2024-01-22T09:22:53.393Z,28.85
2024-01-22T09:23:53.169Z,28.93
2024-01-22T09:24:53.182Z,29.05
2024-01-22T09:25:53.174Z,29.08
2024-01-22T09:26:53.239Z,29.19
2024-01-22T09:27:53.461Z,29.32
2024-01-22T09:28:53.618Z,29.39
2024-01-22T09:29:56.446Z,29.61
2024-01-22T09:30:53.520Z,29.70
2024-01-22T09:31:53.223Z,29.72
2024-01-22T09:32:53.474Z,29.88
2024-01-22T09:33:53.521Z,29.89
2024-01-22T09:34:53.235Z,29.96
2024-01-22T09:35:53.249Z,30.08
2024-01-22T09:37:08.813Z,30.24
2024-01-22T09:37:53.286Z,30.69
2024-01-22T09:38:53.417Z,30.62
2024-01-22T09:39:53.449Z,30.35
2024-01-22T09:40:53.255Z,30.18
2024-01-22T09:42:00.707Z,29.98
2024-01-22T09:42:53.397Z,29.80
2024-01-22T09:43:53.269Z,29.71
2024-01-22T09:44:53.332Z,29.44
2024-01-22T09:45:53.246Z,29.03
2024-01-22T09:46:53.238Z,28.78
2024-01-22T09:47:53.539Z,28.54
2024-01-22T09:48:53.487Z,28.39
2024-01-22T09:50:00.677Z,28.25
2024-01-22T09:50:53.278Z,28.01
2024-01-22T09:51:53.411Z,27.75
2024-01-22T09:52:53.240Z,27.48
2024-01-22T09:53:53.338Z,27.28
2024-01-22T09:54:53.387Z,27.04
2024-01-22T09:55:53.421Z,26.96
2024-01-22T09:56:56.459Z,26.77
2024-01-22T09:57:53.412Z,26.45
2024-01-22T09:58:53.412Z,26.21
2024-01-22T09:59:53.973Z,26.09
2024-01-22T10:00:53.339Z,25.94
2024-01-22T10:01:53.246Z,25.85
2024-01-22T10:02:53.279Z,25.63
2024-01-22T10:03:54.400Z,25.51
2024-01-22T10:04:53.261Z,25.41
2024-01-22T10:05:53.397Z,25.35
2024-01-22T10:06:53.485Z,25.18
2024-01-22T10:07:53.271Z,25.01
2024-01-22T10:08:53.294Z,24.82
2024-01-22T10:09:53.250Z,24.78
2024-01-22T10:10:53.319Z,24.68
2024-01-22T10:11:53.438Z,24.62
2024-01-22T10:12:53.469Z,24.59
2024-01-22T10:13:53.495Z,24.56
2024-01-22T10:14:53.653Z,24.42
2024-01-22T10:15:53.659Z,24.39
2024-01-22T10:16:53.677Z,24.27
2024-01-22T10:17:53.844Z,24.21
2024-01-22T10:18:53.997Z,24.16
2024-01-22T10:19:55.035Z,24.13
2024-01-22T10:20:55.487Z,23.95
2024-01-22T10:21:54.063Z,23.92
2024-01-22T10:22:54.426Z,23.92
2024-01-22T10:23:54.267Z,23.83
2024-01-22T10:24:54.317Z,23.75
2024-01-22T10:25:54.320Z,23.69
2024-01-22T10:26:54.375Z,23.63
2024-01-22T10:27:54.943Z,23.66
2024-01-22T10:28:54.697Z,23.53
2024-01-22T10:29:55.643Z,23.50
2024-01-22T10:30:54.912Z,23.45
2024-01-22T10:31:55.680Z,23.41
2024-01-22T10:32:54.803Z,23.28
2024-01-22T10:33:55.053Z,23.27
2024-01-22T10:34:55.117Z,23.20
2024-01-22T10:35:55.108Z,23.25
2024-01-22T10:36:54.867Z,23.18
2024-01-22T10:37:54.960Z,23.12
2024-01-22T10:38:55.937Z,23.14
2024-01-22T10:39:55.440Z,23.07
2024-01-22T10:40:54.978Z,23.03
2024-01-22T10:41:56.834Z,22.99
2024-01-22T10:42:55.046Z,22.84
2024-01-22T10:43:55.211Z,22.78
2024-01-22T10:44:55.035Z,22.76
2024-01-22T10:45:55.480Z,22.67
2024-01-22T10:46:55.022Z,22.62
2024-01-22T10:47:57.977Z,22.65
2024-01-22T10:48:55.634Z,22.62
2024-01-22T10:49:55.469Z,22.46
2024-01-22T10:50:55.453Z,22.43
2024-01-22T10:51:55.418Z,22.38
2024-01-22T10:52:55.489Z,22.43
2024-01-22T10:53:55.673Z,22.41
2024-01-22T10:54:55.530Z,22.41
2024-01-22T10:55:55.506Z,22.39
2024-01-22T10:56:55.537Z,22.41
2024-01-22T10:57:55.610Z,22.34
2024-01-22T10:58:55.524Z,22.38
2024-01-22T10:59:56.112Z,22.34
2024-01-22T11:00:55.604Z,22.25
2024-01-22T11:01:55.931Z,22.26
2024-01-22T11:02:58.797Z,22.22
2024-01-22T11:03:57.957Z,22.20
2024-01-22T11:04:56.444Z,22.16
2024-01-22T11:05:55.587Z,22.15
2024-01-22T11:06:55.562Z,22.07
2024-01-22T11:07:55.553Z,22.07
2024-01-22T11:08:56.284Z,22.06
2024-01-22T11:09:58.443Z,22.00
2024-01-22T11:10:58.762Z,22.00
2024-01-22T11:11:55.564Z,21.96
2024-01-22T11:12:55.942Z,21.87
2024-01-22T11:13:55.941Z,21.92
2024-01-22T11:14:55.657Z,21.84
2024-01-22T11:15:55.967Z,21.78
2024-01-22T11:16:55.584Z,21.81
2024-01-22T11:17:55.738Z,21.79
2024-01-22T11:18:55.782Z,21.70
2024-01-22T11:19:55.615Z,21.78
2024-01-22T11:20:55.982Z,21.79
2024-01-22T11:21:57.304Z,21.66
2024-01-22T11:22:55.571Z,21.52
2024-01-22T11:24:27.771Z,21.66
2024-01-22T11:24:55.584Z,22.00
2024-01-22T11:25:56.594Z,22.35
2024-01-22T11:26:55.612Z,23.11
2024-01-22T11:27:56.792Z,23.06
2024-01-22T11:28:55.945Z,23.47
2024-01-22T11:29:55.660Z,23.58
2024-01-22T11:30:55.588Z,23.74
2024-01-22T11:31:55.627Z,24.22
2024-01-22T11:32:55.703Z,24.45
2024-01-22T11:33:57.509Z,24.56
2024-01-22T11:34:55.698Z,24.75
2024-01-22T11:35:55.632Z,24.90
2024-01-22T11:36:55.703Z,25.04
2024-01-22T11:37:55.601Z,25.26
2024-01-22T11:38:56.001Z,25.46
2024-01-22T11:39:57.886Z,25.54
2024-01-22T11:40:55.588Z,25.67
2024-01-22T11:41:55.678Z,25.79
2024-01-22T11:42:55.668Z,25.89
2024-01-22T11:43:55.934Z,25.89
2024-01-22T11:44:55.961Z,26.10
2024-01-22T11:45:57.089Z,26.28
2024-01-22T11:46:55.763Z,26.39
2024-01-22T11:47:55.788Z,26.60
2024-01-22T11:48:57.129Z,26.71
2024-01-22T11:49:55.884Z,26.89
2024-01-22T11:50:56.502Z,26.98
2024-01-22T11:51:55.882Z,27.21
2024-01-22T11:52:55.981Z,27.15
2024-01-22T11:53:56.914Z,27.44
2024-01-22T11:54:56.002Z,27.53
2024-01-22T11:55:56.018Z,27.66
2024-01-22T11:56:56.571Z,27.81
2024-01-22T11:57:56.034Z,27.96
2024-01-22T11:58:56.092Z,28.15
2024-01-22T11:59:56.067Z,28.25
2024-01-22T12:00:56.097Z,28.31
2024-01-22T12:01:56.544Z,28.36
2024-01-22T12:02:56.467Z,28.61
2024-01-22T12:03:59.148Z,28.77
2024-01-22T12:04:56.444Z,28.89
2024-01-22T12:05:56.091Z,28.94
2024-01-22T12:06:56.138Z,29.03
2024-01-22T12:07:57.812Z,29.19
2024-01-22T12:09:00.486Z,29.75
2024-01-22T12:09:56.031Z,30.13
2024-01-22T12:10:56.050Z,30.00
2024-01-22T12:11:56.522Z,29.89
2024-01-22T12:12:56.982Z,29.90
2024-01-22T12:13:57.935Z,29.78
2024-01-22T12:14:56.209Z,29.73
2024-01-22T12:15:56.067Z,29.64
2024-01-22T12:16:56.068Z,29.69
2024-01-22T12:17:56.232Z,29.53
2024-01-22T12:18:56.506Z,29.56
2024-01-22T12:19:58.472Z,29.50
2024-01-22T12:20:56.509Z,29.58
2024-01-22T12:21:56.074Z,29.64
2024-01-22T12:22:56.124Z,29.63
2024-01-22T12:23:56.483Z,29.61
2024-01-22T12:24:56.047Z,29.65
2024-01-22T12:26:00.575Z,29.63
2024-01-22T12:26:56.197Z,29.62
2024-01-22T12:27:56.071Z,29.71
2024-01-22T12:28:56.454Z,29.61
2024-01-22T12:29:56.056Z,29.70
2024-01-22T12:30:56.057Z,29.61
2024-01-22T12:31:56.057Z,29.61
2024-01-22T12:32:56.243Z,29.60
2024-01-22T12:33:56.597Z,29.59
2024-01-22T12:34:56.157Z,29.63
2024-01-22T12:35:56.120Z,29.59
2024-01-22T12:36:56.056Z,29.57
2024-01-22T12:37:56.075Z,29.63
2024-01-22T12:38:56.587Z,29.58
2024-01-22T12:39:56.458Z,29.56
2024-01-22T12:40:56.470Z,29.50
2024-01-22T12:41:56.162Z,29.53
2024-01-22T12:42:56.118Z,29.53
2024-01-22T12:43:56.092Z,29.45
2024-01-22T12:44:56.497Z,29.48
2024-01-22T12:45:56.073Z,29.47
2024-01-22T12:46:56.077Z,29.44
2024-01-22T12:47:56.206Z,29.42
2024-01-22T12:48:57.242Z,29.42
2024-01-22T12:49:56.273Z,29.36
2024-01-22T12:50:56.475Z,29.34
2024-01-22T12:51:56.137Z,29.31
2024-01-22T12:52:56.204Z,29.22
2024-01-22T12:53:56.555Z,29.25
2024-01-22T12:54:56.179Z,29.25
2024-01-22T12:55:56.139Z,29.24
2024-01-22T12:56:56.805Z,29.25
2024-01-22T12:57:56.485Z,29.25
2024-01-22T12:58:56.154Z,29.17
2024-01-22T12:59:56.160Z,29.19
2024-01-22T13:00:56.402Z,29.13
2024-01-22T13:01:56.419Z,29.14
2024-01-22T13:02:56.589Z,29.14
2024-01-22T13:03:57.022Z,29.06
2024-01-22T13:04:56.714Z,29.05
2024-01-22T13:05:56.847Z,29.08
2024-01-22T13:06:56.968Z,29.08
2024-01-22T13:07:56.899Z,29.06
2024-01-22T13:08:57.028Z,29.01
2024-01-22T13:09:57.017Z,28.99
2024-01-22T13:10:57.128Z,29.02
2024-01-22T13:11:57.200Z,28.96
2024-01-22T13:12:57.201Z,28.97
2024-01-22T13:13:57.473Z,28.99
2024-01-22T13:14:57.366Z,29.00
2024-01-22T13:16:11.532Z,28.96
2024-01-22T13:16:57.403Z,28.97
2024-01-22T13:17:57.469Z,28.94
2024-01-22T13:18:57.636Z,28.85
2024-01-22T13:19:57.419Z,28.83
2024-01-22T13:20:57.425Z,28.83
2024-01-22T13:21:57.513Z,28.77
2024-01-22T13:22:57.421Z,28.78
2024-01-22T13:23:57.516Z,28.71
2024-01-22T13:24:57.426Z,28.71
2024-01-22T13:25:57.427Z,28.66
2024-01-22T13:26:57.481Z,28.67
2024-01-22T13:27:57.432Z,28.69
2024-01-22T13:28:57.486Z,28.64
2024-01-22T13:29:57.507Z,28.69
2024-01-22T13:30:57.438Z,28.61
2024-01-22T13:31:57.443Z,28.64
2024-01-22T13:32:57.579Z,28.64
2024-01-22T13:33:57.631Z,28.61
2024-01-22T13:34:57.501Z,28.58
2024-01-22T13:35:57.491Z,28.53
2024-01-22T13:36:57.501Z,28.52
2024-01-22T13:37:57.444Z,28.52
2024-01-22T13:38:57.532Z,28.55
2024-01-22T13:39:57.582Z,28.46
2024-01-22T13:40:57.723Z,28.40
2024-01-22T13:41:57.750Z,28.47
2024-01-22T13:42:57.820Z,28.43
2024-01-22T13:43:57.853Z,28.41
2024-01-22T13:44:58.016Z,28.43
2024-01-22T13:45:57.970Z,28.35
2024-01-22T13:46:58.033Z,28.35